Latest Weather Observations for Braidwood

IDN60901

Issued at 4:21 pm EDT Wednesday 29 March 2017 (issued every 10 minutes, with the page automatically refreshed every 10 minutes)

About weather observations | Map of Canberra area stations | Latest observations for Canberra area | Other Formats
Station Details ID: 069132 Name: BRAIDWOOD RACECOURSE AWS Lat: -35.43 Lon: 149.78 Height: 665.2 m
Data from the previous 72 hours. | See also: Recent months at Braidwood
Date/Time
EDT
Temp
°C
App
Temp
°C
Dew
Point
°C
Rel
Hum
%
Delta-T
°C
Wind Press
QNH
hPa
Press
MSL
hPa
Rain since
9am
mm
Dir  Spd
km/h
Gust
km/h
Spd
kts
Gust
kts
29/04:00pm 26.2 20.1 2.8 22 11.8 NW 24 37 13 20 1009.2 1007.1 0.0
29/03:30pm 26.3 19.4 -2.4 15 13.2 NW 24 43 13 23 1009.6 1007.4 0.0
29/03:00pm 26.3 20.9 2.3 21 12.0 NW 20 41 11 22 1009.9 1007.8 0.0
29/02:30pm 25.9 21.2 3.2 23 11.5 NW 17 26 9 14 1010.1 1008.0 0.0
29/02:00pm 25.9 20.8 3.2 23 11.5 NW 19 30 10 16 1010.6 1008.5 0.0
29/01:30pm 25.5 21.3 4.0 25 11.0 NW 15 28 8 15 1011.2 1009.1 0.0
29/01:00pm 24.9 21.4 3.5 25 10.9 NNW 11 20 6 11 1011.5 1009.4 0.0
29/12:30pm 24.1 21.5 5.9 31 9.6 NNW 9 17 5 9 1012.0 1009.9 0.0
29/12:00pm 22.9 19.9 6.2 34 8.8 NNW 11 20 6 11 1012.6 1010.5 0.0
29/11:30am 21.7 18.8 8.2 42 7.3 NNW 13 22 7 12 1012.8 1010.7 0.0
29/11:00am 20.5 18.0 8.2 45 6.6 NNW 11 19 6 10 1013.1 1011.0 0.0
29/10:30am 18.8 17.1 9.8 56 4.9 NNW 9 20 5 11 1013.3 1011.2 0.0
29/10:00am 17.9 17.0 11.5 66 3.6 N 7 15 4 8 1013.3 1011.2 0.0
29/09:30am 15.8 14.9 11.2 74 2.6 NNW 7 17 4 9 1013.6 1011.5 0.0
29/09:00am 14.2 13.5 12.1 87 1.2 NNW 7 15 4 8 1013.4 1011.3 0.0
29/08:30am 12.5 12.7 11.9 96 0.3 NNW 2 7 1 4 1013.5 1011.4 -
29/08:00am 11.9 11.6 11.3 96 0.3 N 4 9 2 5 1013.4 1011.3 -
29/07:30am 12.0 11.7 11.4 96 0.3 N 4 7 2 4 1013.2 1011.1 -
29/07:00am 12.4 12.2 11.8 96 0.3 NNW 4 9 2 5 1013.2 1011.1 -
29/06:30am 12.7 12.2 12.1 96 0.3 N 6 11 3 6 1012.9 1010.8 -
29/06:00am 12.6 12.4 11.8 95 0.4 N 4 11 2 6 1012.9 1010.8 -
29/05:30am 13.1 13.0 12.2 94 0.5 N 4 7 2 4 1013.0 1010.9 -
29/05:00am 13.6 13.7 12.7 94 0.5 N 4 7 2 4 1012.9 1010.8 -
29/04:30am 14.6 15.4 13.8 95 0.5 N 2 7 1 4 1013.0 1010.9 -
29/04:00am 14.9 15.9 14.3 96 0.4 NNW 2 7 1 4 1013.2 1011.1 -
29/03:30am 14.4 15.6 13.8 96 0.3 CALM 0 6 0 3 1013.4 1011.3 -
29/03:00am 13.5 14.3 12.4 93 0.6 CALM 0 0 0 0 1013.7 1011.7 0.0
29/02:30am 14.4 15.4 13.3 93 0.6 CALM 0 0 0 0 1013.9 1011.9 -
29/02:00am 15.2 16.5 14.1 93 0.6 CALM 0 2 0 1 1014.3 1012.2 -
29/01:30am 15.6 17.1 14.6 94 0.6 CALM 0 0 0 0 1014.6 1012.5 -
29/01:00am 15.5 16.9 14.5 94 0.6 CALM 0 0 0 0 1015.2 1013.2 -
29/12:30am 16.0 17.4 14.5 91 0.9 CALM 0 0 0 0 1015.4 1013.4 -
29/12:00am 16.6 18.4 15.5 93 0.7 CALM 0 0 0 0 1015.5 1013.5 -
 
Date/Time
EDT
Temp
°C
App
Temp
°C
Dew
Point
°C
Rel
Hum
%
Delta-T
°C
Wind Press
QNH
hPa
Press
MSL
hPa
Rain since
9am
mm
Dir  Spd
km/h
Gust
km/h
Spd
kts
Gust
kts
28/11:30pm 16.7 17.8 15.6 93 0.7 N 4 9 2 5 1015.6 1013.6 -
28/11:00pm 16.8 18.7 15.7 93 0.7 CALM 0 2 0 1 1015.8 1013.7 -
28/10:30pm 16.7 18.5 15.6 93 0.7 CALM 0 0 0 0 1016.0 1013.9 -
28/10:00pm 16.6 18.3 15.3 92 0.8 CALM 0 6 0 3 1016.0 1013.9 -
28/09:30pm 16.6 18.1 15.6 94 0.6 NE 2 6 1 3 1015.9 1013.8 -
28/09:00pm 16.2 17.5 15.1 93 0.7 SE 2 4 1 2 1015.6 1013.6 -
28/08:30pm 16.3 16.9 15.2 93 0.7 ESE 6 7 3 4 1015.3 1013.3 -
28/08:00pm 16.3 16.6 15.0 92 0.8 ESE 7 9 4 5 1015.2 1013.2 -
28/07:30pm 16.4 15.9 14.9 91 0.9 SE 11 13 6 7 1015.2 1013.2 -
28/07:00pm 16.8 16.3 14.8 88 1.2 SE 11 15 6 8 1015.0 1012.9 -
28/06:30pm 17.2 16.2 14.5 84 1.6 ESE 13 19 7 10 1014.6 1012.5 -
28/06:00pm 17.9 16.8 14.4 80 2.1 SE 13 20 7 11 1014.4 1012.3 -
28/05:30pm 18.8 17.0 14.5 76 2.6 ESE 17 22 9 12 1014.0 1012.0 -
28/05:00pm 19.6 17.4 14.8 74 2.9 ESE 20 26 11 14 1013.6 1011.5 -
28/04:30pm 20.7 18.7 15.0 70 3.5 ESE 19 24 10 13 1013.5 1011.4 -
28/04:00pm 23.1 23.4 14.4 58 5.3 NNE 6 11 3 6 1013.6 1011.5 -
28/03:00pm 21.7 21.3 13.1 58 5.1 NE 7 13 4 7 1014.0 1012.0 -
28/02:00pm 20.3 19.9 12.3 60 4.6 NE 6 11 3 6 1014.7 1012.6 0.0
28/01:30pm 20.7 21.1 13.6 64 4.2 NNW 4 9 2 5 1015.2 1013.2 0.0
28/01:00pm 18.6 18.1 12.1 66 3.7 NE 6 9 3 5 1015.8 1013.7 0.0
28/12:30pm 18.2 19.2 13.1 72 3.0 CALM 0 0 0 0 1016.2 1014.1 0.0
28/12:00pm 17.2 17.2 12.5 74 2.7 NNW 4 7 2 4 1016.5 1014.5 0.0
28/11:30am 16.8 17.1 12.3 75 2.6 WNW 2 6 1 3 1016.6 1014.6 0.0
28/11:00am 16.3 17.0 12.1 76 2.4 CALM 0 0 0 0 1016.8 1014.8 0.0
28/10:30am 15.6 16.1 11.6 77 2.2 CALM 0 0 0 0 1016.9 1014.9 0.0
28/10:00am 15.1 15.1 11.1 77 2.2 ENE 2 4 1 2 1016.7 1014.7 0.0
28/09:30am 14.4 14.7 11.0 80 1.9 CALM 0 4 0 2 1016.7 1014.7 0.0
28/09:00am 13.9 13.1 10.9 82 1.6 E 6 7 3 4 1016.5 1014.5 1.0
28/08:30am 13.6 12.8 11.0 84 1.4 ESE 6 7 3 4 1016.5 1014.5 1.0
28/08:00am 13.4 13.0 12.3 93 0.6 ESE 6 9 3 5 1016.1 1014.0 1.0
28/07:30am 13.3 12.0 12.5 95 0.4 ESE 11 13 6 7 1015.8 1013.7 1.0
28/07:00am 13.6 13.0 12.3 92 0.7 SE 7 13 4 7 1015.4 1013.4 1.0
28/06:30am 13.5 13.1 12.4 93 0.6 SE 6 6 3 3 1015.1 1013.1 1.0
28/06:00am 13.3 12.0 12.4 94 0.5 ESE 11 17 6 9 1015.0 1012.9 1.0
28/05:30am 13.7 12.1 12.8 94 0.5 ESE 13 19 7 10 1014.9 1012.8 1.0
28/05:00am 14.4 13.5 13.6 95 0.5 SE 11 17 6 9 1014.7 1012.6 1.0
28/04:30am 14.6 13.7 13.6 94 0.6 ESE 11 17 6 9 1014.5 1012.4 1.0
28/04:00am 15.3 14.2 14.2 93 0.6 SE 13 20 7 11 1014.7 1012.6 1.0
28/03:30am 15.7 15.1 14.6 93 0.6 SE 11 17 6 9 1014.6 1012.5 1.0
28/03:00am 15.9 15.0 14.9 94 0.6 SE 13 19 7 10 1014.4 1012.3 1.0
28/02:30am 15.8 14.6 15.0 95 0.5 SE 15 22 8 12 1014.3 1012.2 1.0
28/02:00am 15.9 15.2 15.3 96 0.4 SE 13 19 7 10 1013.9 1011.9 1.0
28/01:30am 16.1 16.2 15.5 96 0.4 SE 9 13 5 7 1013.7 1011.7 1.0
28/01:00am 16.6 16.5 16.0 96 0.4 SE 11 15 6 8 1014.2 1012.1 1.0
28/12:30am 17.6 18.3 17.0 96 0.4 SE 9 13 5 7 1013.9 1011.9 1.0
28/12:00am 18.4 18.2 17.6 95 0.5 ESE 15 20 8 11 1014.2 1012.1 1.0
 
Date/Time
EDT
Temp
°C
App
Temp
°C
Dew
Point
°C
Rel
Hum
%
Delta-T
°C
Wind Press
QNH
hPa
Press
MSL
hPa
Rain since
9am
mm
Dir  Spd
km/h
Gust
km/h
Spd
kts
Gust
kts
27/11:30pm 19.4 20.7 18.4 94 0.6 SE 9 15 5 8 1014.3 1012.2 1.0
27/11:00pm 19.8 21.1 17.6 87 1.4 ESE 7 11 4 6 1013.9 1011.9 1.0
27/10:30pm 20.7 22.5 17.5 82 2.0 NNE 4 9 2 5 1013.8 1011.8 1.0
27/10:00pm 20.1 21.9 17.3 84 1.8 E 4 6 2 3 1013.4 1011.3 1.0
27/09:30pm 20.4 20.4 17.2 82 2.0 NW 13 24 7 13 1013.8 1011.8 1.0
27/09:00pm 20.9 23.0 17.3 80 2.3 WNW 2 6 1 3 1014.0 1012.0 0.8
27/08:30pm 24.1 23.6 15.9 60 5.1 NW 13 22 7 12 1013.6 1011.5 0.2
27/08:29pm 24.7 24.3 16.2 59 5.3 NW 13 22 7 12 1013.6 1011.5 0.0
27/08:00pm 23.9 24.3 16.2 62 4.8 NW 9 15 5 8 1011.6 1009.5 0.0
27/07:30pm 23.7 24.4 15.5 60 5.1 NNW 6 9 3 5 1010.3 1008.2 0.0
27/07:00pm 24.1 25.6 15.6 59 5.3 N 2 6 1 3 1010.3 1008.2 0.0
27/06:30pm 25.8 26.9 15.5 53 6.4 NNW 4 7 2 4 1010.4 1008.3 0.0
27/06:00pm 26.4 27.0 15.8 52 6.7 NNW 7 15 4 8 1010.5 1008.4 0.0
27/05:30pm 27.2 26.3 14.9 47 7.6 NW 13 24 7 13 1010.8 1008.7 0.0
27/05:00pm 28.0 25.8 14.3 43 8.5 NW 19 32 10 17 1011.1 1008.9 0.0
27/04:30pm 27.8 25.7 14.8 45 8.1 NW 19 39 10 21 1011.4 1009.3 0.0
27/04:00pm 28.1 26.9 15.1 45 8.1 NNW 15 24 8 13 1011.8 1009.7 0.0
27/03:30pm 27.7 25.2 14.0 43 8.4 NW 20 32 11 17 1012.1 1010.0 0.0
27/03:00pm 27.8 26.8 15.5 47 7.7 NW 15 22 8 12 1012.4 1010.4 0.0
27/02:30pm 27.3 26.2 15.3 48 7.5 NW 15 24 8 13 1012.8 1010.7 0.0
27/02:00pm 27.2 25.6 14.9 47 7.6 NW 17 32 9 17 1013.3 1011.2 0.0
27/01:30pm 26.4 25.3 14.2 47 7.5 NNW 13 28 7 15 1013.8 1011.8 0.0
27/01:00pm 25.5 23.7 13.4 47 7.3 NNW 15 24 8 13 1014.5 1012.4 0.0
27/12:30pm 25.1 22.6 13.6 49 6.9 NW 19 30 10 16 1015.1 1013.1 0.0
27/12:00pm 24.3 22.7 13.8 52 6.3 NW 15 22 8 12 1015.6 1013.6 0.0
27/11:30am 23.7 23.8 15.5 60 5.1 NNW 9 17 5 9 1016.1 1014.0 0.0
27/11:00am 21.9 22.3 15.3 66 4.0 NNE 7 17 4 9 1016.5 1014.5 0.0
27/10:30am 20.9 21.5 15.7 72 3.2 N 7 13 4 7 1016.8 1014.8 0.0
27/10:00am 19.9 21.3 16.5 81 2.1 N 4 9 2 5 1017.4 1015.3 0.0
27/09:30am 18.2 19.1 16.0 87 1.3 NNE 6 11 3 6 1017.5 1015.4 0.0
27/09:00am 16.8 17.4 15.7 93 0.7 NNE 7 13 4 7 1017.6 1015.5 0.0
27/08:30am 16.4 17.5 15.6 95 0.5 N 4 9 2 5 1017.6 1015.5 0.0
27/08:00am 16.0 17.3 15.2 95 0.5 N 2 9 1 5 1017.6 1015.5 0.0
27/07:30am 15.8 16.7 15.0 95 0.5 N 4 7 2 4 1017.4 1015.3 0.0
27/07:00am 15.8 16.3 15.0 95 0.5 N 6 7 3 4 1017.2 1015.2 0.0
27/06:30am 15.6 16.8 14.8 95 0.5 N 2 4 1 2 1017.0 1015.0 0.0
27/06:00am 15.8 16.7 15.0 95 0.5 NNE 4 7 2 4 1016.9 1014.9 0.0
27/05:30am 16.4 17.6 15.8 96 0.4 N 4 11 2 6 1017.0 1015.0 0.0
27/05:00am 16.0 17.0 15.4 96 0.4 N 4 7 2 4 1017.0 1015.0 0.0
27/04:30am 16.3 17.4 15.7 96 0.4 N 4 7 2 4 1017.1 1015.1 0.0
27/04:00am 15.3 16.7 14.5 95 0.5 CALM 0 0 0 0 1017.5 1015.4 0.0
27/03:30am 15.3 16.8 14.7 96 0.4 CALM 0 0 0 0 1017.8 1015.8 0.0
27/03:00am 15.3 16.8 14.7 96 0.4 CALM 0 0 0 0 1018.0 1016.0 0.0
27/02:30am 15.2 16.7 14.7 97 0.3 CALM 0 0 0 0 1018.1 1016.1 0.0
27/02:00am 13.9 14.6 13.3 96 0.3 NNW 2 7 1 4 1018.4 1016.4 0.0
27/01:30am 12.5 13.0 11.6 94 0.5 CALM 0 0 0 0 1019.0 1016.9 0.0
27/01:00am 12.9 13.5 12.0 94 0.5 CALM 0 0 0 0 1019.1 1017.1 0.0
27/12:30am 13.2 13.9 12.3 94 0.5 CALM 0 0 0 0 1019.2 1017.2 0.0
27/12:00am 13.6 14.4 12.7 94 0.5 CALM 0 0 0 0 1019.4 1017.4 0.0
 
Date/Time
EDT
Temp
°C
App
Temp
°C
Dew
Point
°C
Rel
Hum
%
Delta-T
°C
Wind Press
QNH
hPa
Press
MSL
hPa
Rain since
9am
mm
Dir  Spd
km/h
Gust
km/h
Spd
kts
Gust
kts
26/11:30pm 13.9 14.8 12.8 93 0.6 CALM 0 0 0 0 1019.5 1017.5 0.0
26/11:00pm 14.3 15.2 12.9 91 0.8 CALM 0 0 0 0 1019.8 1017.8 0.0
26/10:30pm 15.2 16.5 14.1 93 0.6 CALM 0 0 0 0 1019.8 1017.8 0.0
26/10:00pm 15.1 16.3 13.8 92 0.8 CALM 0 0 0 0 1019.5 1017.5 0.0
26/09:30pm 15.4 16.2 13.8 90 0.9 SSE 2 4 1 2 1019.3 1017.3 0.0
26/09:00pm 15.8 17.0 13.8 88 1.2 CALM 0 2 0 1 1019.0 1016.9 0.0
26/08:30pm 16.8 17.6 14.8 88 1.2 SSE 4 6 2 3 1018.7 1016.7 0.0
26/08:00pm 17.9 19.3 15.3 85 1.6 SE 2 6 1 3 1018.2 1016.2 0.0
26/07:30pm 18.6 19.6 15.3 81 2.0 SE 4 6 2 3 1017.9 1015.9 0.0
26/07:00pm 20.0 21.2 15.8 77 2.6 E 4 6 2 3 1017.5 1015.4 0.0
26/06:30pm 21.7 22.1 16.2 71 3.4 E 9 13 5 7 1017.1 1015.1 0.0
26/06:00pm 22.4 21.8 15.7 66 4.1 ESE 13 19 7 10 1016.9 1014.9 0.0
26/05:30pm 23.1 21.3 14.4 58 5.3 ESE 17 20 9 11 1016.6 1014.6 0.0
26/05:00pm 23.6 22.2 14.6 57 5.5 ESE 15 20 8 11 1016.5 1014.5 0.0
26/04:30pm 23.9 22.5 14.6 56 5.7 E 15 19 8 10 1016.5 1014.5 0.0

Latest Capital City Observations: Canberra | Sydney | Melbourne | Brisbane | Adelaide | Perth | Hobart | Darwin

Other Formats:

Comma delimited format used in spreadsheet applications
http://www.bom.gov.au/fwo/IDN60903/IDN60903.94927.axf

JavaScript Object Notation format (JSON) in row-major order
http://www.bom.gov.au/fwo/IDN60903/IDN60903.94927.json